createdAt,value
2023-04-14T00:00:36.700Z,100.00
2023-04-14T00:03:06.292Z,100.00
2023-04-14T00:05:35.865Z,100.00
2023-04-14T00:08:05.261Z,100.00
2023-04-14T00:10:34.859Z,100.00
2023-04-14T00:13:03.079Z,100.00
2023-04-14T00:15:31.451Z,100.00
2023-04-14T00:17:59.756Z,100.00
2023-04-14T00:20:28.726Z,100.00
2023-04-14T00:22:58.848Z,100.00
2023-04-14T00:25:27.362Z,100.00
2023-04-14T00:27:57.311Z,100.00
2023-04-14T00:30:25.893Z,100.00
2023-04-14T00:32:54.335Z,100.00
2023-04-14T00:35:25.717Z,100.00
2023-04-14T00:37:56.600Z,100.00
2023-04-14T00:40:25.796Z,100.00
2023-04-14T00:42:54.391Z,100.00
2023-04-14T00:45:25.388Z,100.00
2023-04-14T00:47:54.111Z,100.00
2023-04-14T00:50:23.037Z,100.00
2023-04-14T00:52:53.181Z,100.00
2023-04-14T00:55:22.211Z,100.00
2023-04-14T00:57:51.120Z,100.00
2023-04-14T01:00:23.099Z,100.00
2023-04-14T01:02:53.454Z,100.00
2023-04-14T01:05:22.364Z,100.00
2023-04-14T01:07:51.314Z,100.00
2023-04-14T01:10:20.033Z,100.00
2023-04-14T01:13:07.060Z,100.00
2023-04-14T01:15:40.587Z,100.00
2023-04-14T01:18:21.703Z,100.00
2023-04-14T01:20:57.457Z,100.00
2023-04-14T01:23:28.755Z,100.00
2023-04-14T01:26:29.888Z,100.00
2023-04-14T01:29:22.612Z,100.00
2023-04-14T01:31:58.140Z,100.00
2023-04-14T01:34:32.614Z,100.00
2023-04-14T01:37:10.600Z,100.00
2023-04-14T01:39:42.794Z,100.00
2023-04-14T01:42:15.046Z,100.00
2023-04-14T01:44:44.972Z,100.00
2023-04-14T01:47:16.260Z,100.00
2023-04-14T01:49:48.383Z,100.00
2023-04-14T01:52:18.231Z,100.00
2023-04-14T01:54:48.620Z,100.00
2023-04-14T01:57:21.284Z,100.00
2023-04-14T01:59:53.163Z,100.00
2023-04-14T02:02:25.785Z,100.00
2023-04-14T02:04:57.409Z,100.00
2023-04-14T02:07:28.242Z,100.00
2023-04-14T02:09:58.154Z,100.00
2023-04-14T02:12:29.229Z,100.00
2023-04-14T02:15:02.012Z,100.00
2023-04-14T02:17:32.244Z,100.00
2023-04-14T02:20:03.391Z,100.00
2023-04-14T02:22:31.786Z,100.00
2023-04-14T02:25:02.568Z,100.00
2023-04-14T02:27:37.785Z,100.00
2023-04-14T02:30:13.048Z,100.00
2023-04-14T02:32:48.301Z,100.00
2023-04-14T02:35:21.786Z,100.00
2023-04-14T02:37:55.195Z,100.00
2023-04-14T02:40:37.377Z,100.00
2023-04-14T02:43:11.404Z,100.00
2023-04-14T02:45:43.612Z,100.00
2023-04-14T02:48:15.829Z,100.00
2023-04-14T02:50:47.601Z,100.00
2023-04-14T02:53:23.296Z,100.00
2023-04-14T02:55:58.233Z,100.00
2023-04-14T02:58:30.255Z,100.00
2023-04-14T03:00:59.294Z,100.00
2023-04-14T03:03:30.468Z,100.00
2023-04-14T03:06:01.757Z,100.00
2023-04-14T03:08:31.755Z,100.00
2023-04-14T03:11:02.285Z,100.00
2023-04-14T03:13:34.773Z,100.00
2023-04-14T03:16:04.810Z,100.00
2023-04-14T03:18:37.245Z,100.00
2023-04-14T03:21:07.315Z,100.00
2023-04-14T03:23:38.867Z,100.00
2023-04-14T03:26:15.694Z,100.00
2023-04-14T03:28:45.186Z,100.00
2023-04-14T03:31:16.621Z,100.00
2023-04-14T03:34:09.306Z,100.00
2023-04-14T03:36:45.882Z,100.00
2023-04-14T03:39:20.039Z,100.00
2023-04-14T03:41:51.698Z,100.00
2023-04-14T03:44:22.379Z,100.00
2023-04-14T03:46:54.581Z,100.00
2023-04-14T03:49:26.533Z,100.00
2023-04-14T03:52:00.318Z,100.00
2023-04-14T03:54:32.552Z,100.00
2023-04-14T03:57:05.639Z,100.00
2023-04-14T03:59:37.719Z,100.00
2023-04-14T04:02:08.781Z,100.00
2023-04-14T04:04:39.441Z,100.00
2023-04-14T04:07:14.677Z,100.00
2023-04-14T04:09:46.301Z,100.00
2023-04-14T04:12:18.850Z,100.00
2023-04-14T04:14:48.120Z,100.00
2023-04-14T04:17:20.472Z,100.00
2023-04-14T04:19:51.545Z,100.00
2023-04-14T04:22:22.615Z,100.00
2023-04-14T04:24:52.721Z,100.00
2023-04-14T04:27:29.602Z,100.00
2023-04-14T04:30:08.812Z,100.00
2023-04-14T04:32:40.936Z,100.00
2023-04-14T04:35:13.433Z,100.00
2023-04-14T04:37:46.261Z,100.00
2023-04-14T04:40:15.575Z,100.00
2023-04-14T04:42:45.746Z,100.00
2023-04-14T04:45:43.166Z,100.00
2023-04-14T04:48:14.582Z,100.00
2023-04-14T04:50:47.528Z,100.00
2023-04-14T04:53:16.048Z,100.00
2023-04-14T04:55:45.706Z,100.00
2023-04-14T04:58:14.322Z,100.00
2023-04-14T05:00:43.549Z,100.00
2023-04-14T05:03:12.155Z,100.00
2023-04-14T05:05:41.915Z,100.00
2023-04-14T05:08:14.439Z,100.00
2023-04-14T05:10:43.575Z,100.00
2023-04-14T05:13:15.423Z,100.00
2023-04-14T05:15:44.975Z,100.00
2023-04-14T05:18:13.773Z,100.00
2023-04-14T05:20:42.530Z,100.00
2023-04-14T05:23:13.386Z,100.00
2023-04-14T05:25:42.652Z,100.00
2023-04-14T05:28:11.362Z,100.00
2023-04-14T05:30:39.872Z,100.00
2023-04-14T05:33:08.593Z,100.00
2023-04-14T05:35:37.460Z,100.00
2023-04-14T05:38:08.042Z,100.00
2023-04-14T05:40:37.753Z,100.00
2023-04-14T05:43:05.982Z,100.00
2023-04-14T05:45:34.321Z,100.00
2023-04-14T05:48:03.997Z,100.00
2023-04-14T05:50:33.486Z,100.00
2023-04-14T05:53:02.716Z,100.00
2023-04-14T05:55:31.032Z,100.00
2023-04-14T05:58:00.863Z,100.00
2023-04-14T06:00:30.006Z,100.00
2023-04-14T06:02:58.500Z,100.00
2023-04-14T06:05:27.447Z,100.00
2023-04-14T06:07:56.108Z,100.00
2023-04-14T06:10:24.583Z,100.00
2023-04-14T06:12:54.019Z,100.00
2023-04-14T06:15:27.133Z,100.00
2023-04-14T06:17:55.669Z,100.00
2023-04-14T06:20:24.000Z,100.00
2023-04-14T06:22:52.776Z,100.00
2023-04-14T06:25:21.559Z,100.00
2023-04-14T06:27:51.305Z,100.00
2023-04-14T06:30:20.237Z,100.00
2023-04-14T06:32:54.384Z,100.00
2023-04-14T06:35:32.542Z,100.00
2023-04-14T06:38:02.669Z,100.00
2023-04-14T06:40:31.980Z,100.00
2023-04-14T06:43:00.280Z,100.00
2023-04-14T06:45:28.494Z,100.00
2023-04-14T06:47:58.485Z,100.00
2023-04-14T06:50:26.705Z,100.00
2023-04-14T06:52:54.960Z,100.00
2023-04-14T06:55:23.308Z,100.00
2023-04-14T06:57:51.798Z,100.00
2023-04-14T07:00:21.114Z,100.00
2023-04-14T07:02:49.907Z,100.00
2023-04-14T07:05:21.027Z,100.00
2023-04-14T07:07:49.547Z,100.00
2023-04-14T07:10:18.979Z,100.00
2023-04-14T07:12:47.570Z,100.00
2023-04-14T07:15:15.891Z,100.00
2023-04-14T07:17:44.525Z,100.00
2023-04-14T07:20:13.150Z,100.00
2023-04-14T07:22:43.207Z,100.00
2023-04-14T07:25:12.804Z,100.00
2023-04-14T07:27:47.303Z,100.00
2023-04-14T07:30:26.124Z,100.00
2023-04-14T07:32:57.028Z,100.00
2023-04-14T07:35:25.873Z,100.00
2023-04-14T07:37:56.258Z,100.00
2023-04-14T07:40:26.240Z,100.00
2023-04-14T07:42:54.631Z,100.00
2023-04-14T07:45:23.203Z,100.00
2023-04-14T07:47:57.085Z,100.00
2023-04-14T07:50:27.052Z,100.00
2023-04-14T07:52:57.046Z,100.00
2023-04-14T07:55:27.566Z,100.00
2023-04-14T07:57:56.216Z,100.00
2023-04-14T08:00:24.754Z,100.00
2023-04-14T08:02:53.356Z,100.00
2023-04-14T08:05:22.018Z,100.00
2023-04-14T08:07:50.205Z,100.00
2023-04-14T08:10:19.905Z,100.00
2023-04-14T08:12:51.414Z,100.00
2023-04-14T08:15:20.119Z,100.00
2023-04-14T08:17:48.338Z,100.00
2023-04-14T08:20:16.604Z,100.00
2023-04-14T08:22:44.966Z,100.00
2023-04-14T08:25:15.697Z,100.00
2023-04-14T08:27:49.190Z,100.00
2023-04-14T08:30:17.668Z,100.00
2023-04-14T08:32:45.971Z,100.00
2023-04-14T08:35:37.097Z,100.00
2023-04-14T08:38:03.276Z,100.00
2023-04-14T08:40:39.375Z,100.00
2023-04-14T08:43:09.335Z,100.00
2023-04-14T08:45:38.109Z,100.00
2023-04-14T08:48:07.541Z,100.00
2023-04-14T08:50:38.474Z,100.00
2023-04-14T08:53:10.336Z,100.00
2023-04-14T08:55:41.667Z,100.00
2023-04-14T08:58:12.273Z,100.00
2023-04-14T09:00:41.537Z,100.00
2023-04-14T09:03:10.070Z,100.00
2023-04-14T09:05:38.737Z,92.69
2023-04-14T09:08:08.493Z,94.94
2023-04-14T09:10:37.001Z,91.17
2023-04-14T09:13:06.741Z,94.22
2023-04-14T09:15:38.171Z,92.66
2023-04-14T09:18:06.511Z,88.52
2023-04-14T09:20:40.887Z,100.00
2023-04-14T09:23:10.810Z,96.97
2023-04-14T09:25:43.733Z,94.65
2023-04-14T09:28:13.656Z,85.50
2023-04-14T09:30:44.338Z,83.52
2023-04-14T09:35:52.327Z,90.17
2023-04-14T09:38:33.997Z,83.55
2023-04-14T09:41:05.001Z,81.62
2023-04-14T09:43:36.653Z,78.00
2023-04-14T09:46:08.553Z,79.98
2023-04-14T09:48:38.237Z,77.65
2023-04-14T09:51:09.992Z,84.44
2023-04-14T09:53:40.216Z,79.55
2023-04-14T09:56:10.926Z,72.29
2023-04-14T09:58:41.755Z,77.02
2023-04-14T10:01:17.192Z,79.23
2023-04-14T10:03:47.588Z,83.56
2023-04-14T10:06:19.910Z,72.31
2023-04-14T10:08:50.209Z,69.87
2023-04-14T10:11:22.737Z,67.17
2023-04-14T10:13:54.152Z,70.57
2023-04-14T10:16:25.261Z,66.64
2023-04-14T10:18:54.247Z,64.79
2023-04-14T10:21:23.337Z,66.90
2023-04-14T10:23:52.483Z,59.58
2023-04-14T10:26:21.788Z,58.93
2023-04-14T10:28:53.251Z,60.01
2023-04-14T10:31:26.640Z,57.89
2023-04-14T10:33:55.785Z,58.02
2023-04-14T10:36:28.180Z,60.21
2023-04-14T10:39:02.498Z,59.80
2023-04-14T10:41:45.893Z,61.07
2023-04-14T10:44:25.930Z,60.32
2023-04-14T10:46:56.721Z,66.89
2023-04-14T10:49:33.038Z,63.72
2023-04-14T10:52:03.480Z,61.58
2023-04-14T10:54:50.765Z,60.64
2023-04-14T10:57:20.576Z,60.79
2023-04-14T10:59:49.540Z,59.40
2023-04-14T11:02:27.972Z,55.01
2023-04-14T11:05:05.222Z,62.44
2023-04-14T11:07:40.431Z,53.92
2023-04-14T11:10:28.772Z,53.00
2023-04-14T11:13:04.088Z,52.63
2023-04-14T11:15:45.720Z,53.73
2023-04-14T11:18:17.878Z,47.86
2023-04-14T11:20:48.372Z,47.29
2023-04-14T11:23:17.752Z,49.50
2023-04-14T11:25:48.794Z,47.17
2023-04-14T11:28:17.848Z,48.60
2023-04-14T11:30:48.598Z,46.09
2023-04-14T11:33:20.302Z,49.15
2023-04-14T11:35:48.690Z,50.32
2023-04-14T11:38:17.156Z,45.27
2023-04-14T11:40:49.587Z,44.69
2023-04-14T11:43:18.690Z,43.96
2023-04-14T11:45:48.722Z,46.25
2023-04-14T11:48:19.448Z,45.39
2023-04-14T11:50:49.710Z,45.13
2023-04-14T11:53:19.858Z,41.33
2023-04-14T11:55:49.775Z,44.57
2023-04-14T11:58:23.860Z,44.90
2023-04-14T12:00:55.919Z,41.67
2023-04-14T12:03:30.559Z,41.00
2023-04-14T12:06:01.574Z,40.34
2023-04-14T12:08:32.085Z,40.00
2023-04-14T12:11:13.533Z,41.58
2023-04-14T12:13:43.214Z,44.54
2023-04-14T12:16:13.049Z,41.76
2023-04-14T12:18:43.350Z,42.97
2023-04-14T12:21:20.456Z,41.17
2023-04-14T12:23:49.875Z,39.99
2023-04-14T12:26:18.013Z,39.04
2023-04-14T12:28:47.352Z,43.88
2023-04-14T12:31:16.874Z,38.48
2023-04-14T12:33:51.563Z,39.62
2023-04-14T12:36:22.710Z,37.40
2023-04-14T12:38:55.241Z,39.46
2023-04-14T12:41:24.061Z,36.84
2023-04-14T12:43:52.298Z,35.77
2023-04-14T12:46:26.847Z,39.96
2023-04-14T12:48:57.113Z,36.12
2023-04-14T12:51:25.516Z,37.19
2023-04-14T12:54:07.507Z,37.00
2023-04-14T12:56:43.248Z,37.95
2023-04-14T12:59:16.090Z,42.77
2023-04-14T13:01:45.418Z,39.02
2023-04-14T13:04:15.215Z,36.65
2023-04-14T13:06:44.083Z,36.63
2023-04-14T13:09:12.798Z,34.29
2023-04-14T13:11:41.186Z,35.79
2023-04-14T13:14:11.451Z,33.84
2023-04-14T13:16:39.934Z,37.81
2023-04-14T13:19:08.511Z,32.56
2023-04-14T13:21:38.386Z,30.95
2023-04-14T13:24:07.028Z,32.08
2023-04-14T13:26:38.685Z,31.35
2023-04-14T13:29:08.694Z,35.40
2023-04-14T13:31:37.168Z,33.03
2023-04-14T13:34:06.049Z,33.76
2023-04-14T13:36:37.037Z,31.93
2023-04-14T13:39:07.276Z,31.66
2023-04-14T13:41:37.670Z,32.48
2023-04-14T13:44:06.874Z,34.57
2023-04-14T13:46:40.851Z,34.04
2023-04-14T13:49:09.865Z,34.50
2023-04-14T13:51:39.786Z,36.15
2023-04-14T13:54:09.981Z,33.12
2023-04-14T13:56:38.493Z,32.79
2023-04-14T13:59:07.236Z,34.15
2023-04-14T14:01:35.472Z,31.67
2023-04-14T14:04:04.020Z,29.99
2023-04-14T14:06:32.773Z,30.51
2023-04-14T14:09:06.743Z,31.27
2023-04-14T14:11:42.081Z,35.04
2023-04-14T14:14:11.078Z,31.95
2023-04-14T14:16:40.263Z,30.81
2023-04-14T14:19:10.994Z,31.19
2023-04-14T14:21:39.516Z,31.94
2023-04-14T14:24:08.860Z,31.39
2023-04-14T14:26:40.186Z,31.21
2023-04-14T14:29:13.289Z,30.99
2023-04-14T14:31:41.653Z,30.17
2023-04-14T14:34:10.003Z,35.99
2023-04-14T14:36:38.305Z,34.15
2023-04-14T14:39:06.943Z,34.56
2023-04-14T14:41:35.099Z,32.00
2023-04-14T14:44:05.106Z,35.29
2023-04-14T14:46:33.988Z,32.35
2023-04-14T14:49:02.522Z,32.53
2023-04-14T14:51:31.968Z,32.65
2023-04-14T14:54:09.153Z,32.07
2023-04-14T14:56:40.900Z,33.17
2023-04-14T14:59:11.049Z,32.29
2023-04-14T15:01:39.408Z,33.60
2023-04-14T15:04:07.907Z,34.15
2023-04-14T15:06:37.643Z,33.04
2023-04-14T15:09:08.432Z,32.88
2023-04-14T15:11:36.613Z,32.06
2023-04-14T15:14:05.938Z,35.67
2023-04-14T15:16:38.590Z,33.81
2023-04-14T15:19:06.904Z,33.58
2023-04-14T15:21:35.450Z,35.35
2023-04-14T15:24:04.071Z,34.22
2023-04-14T15:26:32.862Z,34.79
2023-04-14T15:29:02.489Z,35.54
2023-04-14T15:31:31.109Z,36.97
2023-04-14T15:34:02.532Z,34.97
2023-04-14T15:36:32.555Z,34.72
2023-04-14T15:39:00.666Z,34.05
2023-04-14T15:41:29.300Z,35.22
2023-04-14T15:43:58.224Z,37.51
2023-04-14T15:46:27.725Z,39.68
2023-04-14T15:48:56.328Z,37.04
2023-04-14T15:51:26.359Z,37.33
2023-04-14T15:53:54.714Z,37.68
2023-04-14T15:56:23.712Z,36.80
2023-04-14T15:58:52.527Z,37.56
2023-04-14T16:01:20.881Z,37.69
2023-04-14T16:03:59.072Z,37.13
2023-04-14T16:06:30.774Z,37.89
2023-04-14T16:08:59.918Z,38.79
2023-04-14T16:11:29.637Z,38.89
2023-04-14T16:13:57.955Z,39.72
2023-04-14T16:16:26.783Z,39.47
2023-04-14T16:18:55.274Z,39.59
2023-04-14T16:21:23.831Z,40.56
2023-04-14T16:23:53.896Z,39.97
2023-04-14T16:26:23.710Z,40.61
2023-04-14T16:28:53.384Z,41.45
2023-04-14T16:31:25.756Z,41.92
2023-04-14T16:33:54.612Z,43.13
2023-04-14T16:36:25.259Z,42.64
2023-04-14T16:38:55.706Z,42.20
2023-04-14T16:41:24.166Z,42.01
2023-04-14T16:43:52.895Z,42.73
2023-04-14T16:46:23.747Z,41.79
2023-04-14T16:48:53.420Z,41.64
2023-04-14T16:51:21.672Z,42.26
2023-04-14T16:53:52.030Z,43.88
2023-04-14T16:56:22.709Z,43.57
2023-04-14T16:58:50.990Z,43.08
2023-04-14T17:01:21.285Z,43.83
2023-04-14T17:03:50.181Z,44.07
2023-04-14T17:06:18.653Z,43.91
2023-04-14T17:08:48.440Z,44.38
2023-04-14T17:11:16.639Z,45.63
2023-04-14T17:13:46.176Z,47.06
2023-04-14T17:16:14.852Z,46.90
2023-04-14T17:18:44.345Z,46.59
2023-04-14T17:21:12.490Z,47.39
2023-04-14T17:23:41.396Z,47.08
2023-04-14T17:26:09.544Z,45.83
2023-04-14T17:28:38.895Z,46.23
2023-04-14T17:31:14.182Z,47.32
2023-04-14T17:33:45.527Z,47.25
2023-04-14T17:36:16.572Z,48.03
2023-04-14T17:38:45.878Z,49.29
2023-04-14T17:41:16.068Z,49.50
2023-04-14T17:43:44.963Z,49.73
2023-04-14T17:46:15.315Z,50.77
2023-04-14T17:48:45.193Z,53.02
2023-04-14T17:51:13.578Z,54.34
2023-04-14T17:53:42.980Z,54.78
2023-04-14T17:56:11.864Z,56.00
2023-04-14T17:58:40.143Z,56.72
2023-04-14T18:01:08.868Z,58.22
2023-04-14T18:03:38.853Z,59.36
2023-04-14T18:06:09.154Z,61.40
2023-04-14T18:08:37.989Z,61.64
2023-04-14T18:11:06.670Z,62.68
2023-04-14T18:13:36.138Z,65.85
2023-04-14T18:16:04.262Z,67.45
2023-04-14T18:18:32.977Z,69.59
2023-04-14T18:21:03.410Z,71.57
2023-04-14T18:23:33.357Z,74.11
2023-04-14T18:28:34.900Z,76.42
2023-04-14T18:31:03.944Z,78.63
2023-04-14T18:33:32.438Z,84.30
2023-04-14T18:36:03.280Z,87.67
2023-04-14T18:38:32.167Z,97.58
2023-04-14T18:41:04.870Z,100.00
2023-04-14T18:43:33.789Z,100.00
2023-04-14T18:46:02.472Z,100.00
2023-04-14T18:48:32.018Z,100.00
2023-04-14T18:51:02.591Z,100.00
2023-04-14T18:53:33.569Z,100.00
2023-04-14T18:56:02.145Z,100.00
2023-04-14T18:58:30.594Z,100.00
2023-04-14T19:00:58.862Z,100.00
2023-04-14T19:03:28.409Z,100.00
2023-04-14T19:05:59.029Z,100.00
2023-04-14T19:08:27.683Z,100.00
2023-04-14T19:10:59.190Z,100.00
2023-04-14T19:13:27.583Z,100.00
2023-04-14T19:16:05.825Z,100.00
2023-04-14T19:18:34.415Z,100.00
2023-04-14T19:21:03.137Z,100.00
2023-04-14T19:23:31.445Z,100.00
2023-04-14T19:26:01.199Z,100.00
2023-04-14T19:28:30.688Z,100.00
2023-04-14T19:30:58.867Z,100.00
2023-04-14T19:33:28.301Z,100.00
2023-04-14T19:35:58.367Z,100.00
2023-04-14T19:38:27.492Z,100.00
2023-04-14T19:40:56.792Z,100.00
2023-04-14T19:43:26.472Z,100.00
2023-04-14T19:45:57.374Z,100.00
2023-04-14T19:48:25.550Z,100.00
2023-04-14T19:50:55.536Z,100.00
2023-04-14T19:53:25.128Z,100.00
2023-04-14T19:55:55.759Z,100.00
2023-04-14T19:58:27.569Z,100.00
2023-04-14T20:00:58.813Z,100.00
2023-04-14T20:03:28.167Z,100.00
2023-04-14T20:06:12.376Z,100.00
2023-04-14T20:08:40.981Z,100.00
2023-04-14T20:11:09.395Z,100.00
2023-04-14T20:13:40.311Z,100.00
2023-04-14T20:16:09.305Z,100.00
2023-04-14T20:18:39.463Z,100.00
2023-04-14T20:21:08.552Z,100.00
2023-04-14T20:23:36.930Z,100.00
2023-04-14T20:26:05.550Z,100.00
2023-04-14T20:28:34.004Z,100.00
2023-04-14T20:31:04.427Z,100.00
2023-04-14T20:33:32.991Z,100.00
2023-04-14T20:36:01.790Z,100.00
2023-04-14T20:38:30.216Z,100.00
2023-04-14T20:40:59.418Z,100.00
2023-04-14T20:43:33.417Z,100.00
2023-04-14T20:46:04.437Z,100.00
2023-04-14T20:48:33.032Z,100.00
2023-04-14T20:51:04.427Z,100.00
2023-04-14T20:53:33.820Z,100.00
2023-04-14T20:56:02.374Z,100.00
2023-04-14T20:58:31.606Z,100.00
2023-04-14T21:00:59.817Z,100.00
2023-04-14T21:03:31.565Z,100.00
2023-04-14T21:06:00.325Z,100.00
2023-04-14T21:08:30.574Z,100.00
2023-04-14T21:11:15.622Z,100.00
2023-04-14T21:15:26.479Z,100.00
2023-04-14T21:16:34.911Z,100.00
2023-04-14T21:19:05.744Z,100.00
2023-04-14T21:21:34.818Z,100.00
2023-04-14T21:24:04.865Z,100.00
2023-04-14T21:26:33.055Z,100.00
2023-04-14T21:29:01.743Z,100.00
2023-04-14T21:31:30.278Z,100.00
2023-04-14T21:33:58.505Z,100.00
2023-04-14T21:36:29.988Z,100.00
2023-04-14T21:39:00.874Z,100.00
2023-04-14T21:41:30.378Z,100.00
2023-04-14T21:43:58.854Z,100.00
2023-04-14T21:46:27.871Z,100.00
2023-04-14T21:48:56.462Z,100.00
2023-04-14T21:51:24.680Z,100.00
2023-04-14T21:53:54.377Z,100.00
2023-04-14T21:56:22.722Z,100.00
2023-04-14T21:58:51.282Z,100.00
2023-04-14T22:01:19.987Z,100.00
2023-04-14T22:03:48.277Z,100.00
2023-04-14T22:06:19.359Z,100.00
2023-04-14T22:08:47.976Z,100.00
2023-04-14T22:11:19.033Z,100.00
2023-04-14T22:13:49.307Z,100.00
2023-04-14T22:16:17.927Z,100.00
2023-04-14T22:18:46.553Z,100.00
2023-04-14T22:21:15.839Z,100.00
2023-04-14T22:23:44.728Z,100.00
2023-04-14T22:26:14.826Z,100.00
2023-04-14T22:28:44.404Z,100.00
2023-04-14T22:31:13.259Z,100.00
2023-04-14T22:33:42.014Z,100.00
2023-04-14T22:36:10.402Z,100.00
2023-04-14T22:38:38.904Z,100.00
2023-04-14T22:41:07.553Z,100.00
2023-04-14T22:43:35.807Z,100.00
2023-04-14T22:46:05.903Z,100.00
2023-04-14T22:48:34.136Z,100.00
2023-04-14T22:51:02.616Z,100.00
2023-04-14T22:53:30.993Z,100.00
2023-04-14T22:56:00.709Z,100.00
2023-04-14T22:58:31.949Z,100.00
2023-04-14T23:01:04.523Z,100.00
2023-04-14T23:03:39.455Z,100.00
2023-04-14T23:06:08.378Z,100.00
2023-04-14T23:08:36.521Z,100.00
2023-04-14T23:11:05.940Z,100.00
2023-04-14T23:13:34.248Z,100.00
2023-04-14T23:16:04.311Z,100.00
2023-04-14T23:18:35.378Z,100.00
2023-04-14T23:21:05.502Z,100.00
2023-04-14T23:23:34.202Z,100.00
2023-04-14T23:26:03.881Z,100.00
2023-04-14T23:28:34.679Z,100.00
2023-04-14T23:31:02.975Z,100.00
2023-04-14T23:33:33.487Z,100.00
2023-04-14T23:36:01.698Z,100.00
2023-04-14T23:38:31.562Z,100.00
2023-04-14T23:41:01.619Z,100.00
2023-04-14T23:43:29.998Z,100.00
2023-04-14T23:45:58.372Z,100.00
2023-04-14T23:48:27.606Z,100.00
2023-04-14T23:50:59.663Z,100.00
2023-04-14T23:53:45.754Z,100.00
2023-04-14T23:56:14.143Z,100.00
2023-04-14T23:58:42.710Z,100.00
